sensor_id;sensor_type;location;lat;lon;timestamp;P1;durP1;ratioP1;P2;durP2;ratioP2
5827;SDS011;42583;50.240;8.444;2024-01-06T00:00:56;8.27;;;2.30;;
5827;SDS011;42583;50.240;8.444;2024-01-06T00:15:56;7.55;;;2.45;;
5827;SDS011;42583;50.240;8.444;2024-01-06T00:30:57;6.63;;;2.38;;
5827;SDS011;42583;50.240;8.444;2024-01-06T00:45:57;7.80;;;2.20;;
5827;SDS011;42583;50.240;8.444;2024-01-06T01:00:58;4.65;;;1.80;;
5827;SDS011;42583;50.240;8.444;2024-01-06T01:15:58;2.92;;;1.92;;
5827;SDS011;42583;50.240;8.444;2024-01-06T01:30:59;4.82;;;1.80;;
5827;SDS011;42583;50.240;8.444;2024-01-06T01:45:59;6.00;;;1.70;;
5827;SDS011;42583;50.240;8.444;2024-01-06T02:01:01;4.43;;;1.70;;
5827;SDS011;42583;50.240;8.444;2024-01-06T02:16:02;5.85;;;1.70;;
5827;SDS011;42583;50.240;8.444;2024-01-06T02:31:04;6.10;;;1.98;;
5827;SDS011;42583;50.240;8.444;2024-01-06T02:46:06;4.18;;;1.77;;
5827;SDS011;42583;50.240;8.444;2024-01-06T03:01:07;2.78;;;1.55;;
5827;SDS011;42583;50.240;8.444;2024-01-06T03:16:07;5.70;;;1.70;;
5827;SDS011;42583;50.240;8.444;2024-01-06T03:31:08;3.25;;;1.70;;
5827;SDS011;42583;50.240;8.444;2024-01-06T03:46:08;2.80;;;1.73;;
5827;SDS011;42583;50.240;8.444;2024-01-06T04:01:09;8.05;;;1.90;;
5827;SDS011;42583;50.240;8.444;2024-01-06T04:16:10;7.90;;;2.00;;
5827;SDS011;42583;50.240;8.444;2024-01-06T04:31:10;3.28;;;1.80;;
5827;SDS011;42583;50.240;8.444;2024-01-06T04:46:11;3.97;;;2.00;;
5827;SDS011;42583;50.240;8.444;2024-01-06T05:01:11;3.67;;;2.00;;
5827;SDS011;42583;50.240;8.444;2024-01-06T05:16:12;3.63;;;1.98;;
5827;SDS011;42583;50.240;8.444;2024-01-06T05:31:12;7.70;;;1.80;;
5827;SDS011;42583;50.240;8.444;2024-01-06T05:46:20;6.50;;;2.10;;
5827;SDS011;42583;50.240;8.444;2024-01-06T06:01:21;5.72;;;2.13;;
5827;SDS011;42583;50.240;8.444;2024-01-06T06:16:22;4.95;;;2.17;;
5827;SDS011;42583;50.240;8.444;2024-01-06T06:31:22;3.78;;;2.05;;
5827;SDS011;42583;50.240;8.444;2024-01-06T06:46:23;4.50;;;1.90;;
5827;SDS011;42583;50.240;8.444;2024-01-06T07:01:24;6.03;;;1.98;;
5827;SDS011;42583;50.240;8.444;2024-01-06T07:16:24;6.68;;;1.90;;
5827;SDS011;42583;50.240;8.444;2024-01-06T07:31:25;2.95;;;1.77;;
5827;SDS011;42583;50.240;8.444;2024-01-06T07:46:26;3.42;;;1.92;;
5827;SDS011;42583;50.240;8.444;2024-01-06T08:01:27;9.98;;;3.10;;
5827;SDS011;42583;50.240;8.444;2024-01-06T08:16:27;6.57;;;2.30;;
5827;SDS011;42583;50.240;8.444;2024-01-06T08:31:28;7.40;;;2.83;;
5827;SDS011;42583;50.240;8.444;2024-01-06T08:46:28;4.93;;;2.80;;
5827;SDS011;42583;50.240;8.444;2024-01-06T09:01:30;6.45;;;3.00;;
5827;SDS011;42583;50.240;8.444;2024-01-06T09:16:31;3.20;;;2.17;;
5827;SDS011;42583;50.240;8.444;2024-01-06T09:31:32;2.67;;;1.83;;
5827;SDS011;42583;50.240;8.444;2024-01-06T09:46:32;3.50;;;1.90;;
5827;SDS011;42583;50.240;8.444;2024-01-06T10:01:35;1.90;;;1.65;;
5827;SDS011;42583;50.240;8.444;2024-01-06T10:16:36;4.53;;;2.35;;
5827;SDS011;42583;50.240;8.444;2024-01-06T10:31:36;3.85;;;2.30;;
5827;SDS011;42583;50.240;8.444;2024-01-06T10:46:38;4.53;;;2.60;;
5827;SDS011;42583;50.240;8.444;2024-01-06T11:01:39;5.63;;;3.10;;
5827;SDS011;42583;50.240;8.444;2024-01-06T11:16:41;8.27;;;5.93;;
5827;SDS011;42583;50.240;8.444;2024-01-06T11:31:41;7.93;;;3.80;;
5827;SDS011;42583;50.240;8.444;2024-01-06T11:46:43;3.05;;;2.10;;
5827;SDS011;42583;50.240;8.444;2024-01-06T12:01:45;1.50;;;1.40;;
5827;SDS011;42583;50.240;8.444;2024-01-06T12:16:46;2.33;;;1.65;;
5827;SDS011;42583;50.240;8.444;2024-01-06T12:31:47;2.55;;;1.67;;
5827;SDS011;42583;50.240;8.444;2024-01-06T12:46:47;6.45;;;2.92;;
5827;SDS011;42583;50.240;8.444;2024-01-06T13:01:48;57.47;;;4.72;;
5827;SDS011;42583;50.240;8.444;2024-01-06T13:16:49;303.35;;;9.02;;
5827;SDS011;42583;50.240;8.444;2024-01-06T13:31:50;104.15;;;6.28;;
5827;SDS011;42583;50.240;8.444;2024-01-06T13:46:52;11.43;;;4.40;;
5827;SDS011;42583;50.240;8.444;2024-01-06T14:01:54;9.07;;;4.80;;
5827;SDS011;42583;50.240;8.444;2024-01-06T14:16:55;10.77;;;4.75;;
5827;SDS011;42583;50.240;8.444;2024-01-06T14:31:55;12.32;;;5.90;;
5827;SDS011;42583;50.240;8.444;2024-01-06T14:46:56;212.57;;;10.77;;
5827;SDS011;42583;50.240;8.444;2024-01-06T15:01:57;12.65;;;5.90;;
5827;SDS011;42583;50.240;8.444;2024-01-06T15:16:57;19.33;;;10.05;;
5827;SDS011;42583;50.240;8.444;2024-01-06T15:31:58;11.00;;;4.97;;
5827;SDS011;42583;50.240;8.444;2024-01-06T15:46:59;11.50;;;5.05;;
5827;SDS011;42583;50.240;8.444;2024-01-06T16:01:59;11.98;;;5.93;;
5827;SDS011;42583;50.240;8.444;2024-01-06T16:17:00;15.60;;;6.07;;
5827;SDS011;42583;50.240;8.444;2024-01-06T16:32:00;25.17;;;5.38;;
5827;SDS011;42583;50.240;8.444;2024-01-06T16:47:01;365.27;;;9.88;;
5827;SDS011;42583;50.240;8.444;2024-01-06T17:02:02;85.10;;;5.70;;
5827;SDS011;42583;50.240;8.444;2024-01-06T17:17:03;134.27;;;5.65;;
5827;SDS011;42583;50.240;8.444;2024-01-06T17:32:05;247.02;;;7.40;;
5827;SDS011;42583;50.240;8.444;2024-01-06T17:47:06;173.32;;;6.13;;
5827;SDS011;42583;50.240;8.444;2024-01-06T18:02:07;75.07;;;5.93;;
5827;SDS011;42583;50.240;8.444;2024-01-06T18:17:08;15.00;;;5.57;;
5827;SDS011;42583;50.240;8.444;2024-01-06T18:32:09;20.50;;;5.38;;
5827;SDS011;42583;50.240;8.444;2024-01-06T18:47:09;57.70;;;11.32;;
5827;SDS011;42583;50.240;8.444;2024-01-06T19:02:11;388.63;;;12.73;;
5827;SDS011;42583;50.240;8.444;2024-01-06T19:17:12;104.97;;;6.97;;
5827;SDS011;42583;50.240;8.444;2024-01-06T19:32:13;441.33;;;11.30;;
5827;SDS011;42583;50.240;8.444;2024-01-06T19:47:15;205.52;;;7.28;;
5827;SDS011;42583;50.240;8.444;2024-01-06T20:02:16;148.52;;;6.20;;
5827;SDS011;42583;50.240;8.444;2024-01-06T20:17:16;189.70;;;7.85;;
5827;SDS011;42583;50.240;8.444;2024-01-06T20:32:17;145.27;;;7.07;;
5827;SDS011;42583;50.240;8.444;2024-01-06T20:47:19;38.47;;;6.10;;
5827;SDS011;42583;50.240;8.444;2024-01-06T21:02:19;28.83;;;4.47;;
5827;SDS011;42583;50.240;8.444;2024-01-06T21:17:20;98.90;;;5.93;;
5827;SDS011;42583;50.240;8.444;2024-01-06T21:32:21;233.35;;;6.95;;
5827;SDS011;42583;50.240;8.444;2024-01-06T21:47:22;372.90;;;10.35;;
5827;SDS011;42583;50.240;8.444;2024-01-06T22:02:24;256.40;;;6.00;;
5827;SDS011;42583;50.240;8.444;2024-01-06T22:17:25;171.63;;;5.00;;
5827;SDS011;42583;50.240;8.444;2024-01-06T22:32:25;147.68;;;4.10;;
5827;SDS011;42583;50.240;8.444;2024-01-06T22:47:27;168.32;;;4.82;;
5827;SDS011;42583;50.240;8.444;2024-01-06T23:02:28;397.98;;;8.10;;
5827;SDS011;42583;50.240;8.444;2024-01-06T23:17:29;317.85;;;6.35;;
5827;SDS011;42583;50.240;8.444;2024-01-06T23:32:29;315.90;;;7.30;;
5827;SDS011;42583;50.240;8.444;2024-01-06T23:47:30;508.45;;;11.85;;
